Time;durP1;ratioP1;P1;durP2;ratioP2;P2;SDS_P1;SDS_P2;PMS_P1;PMS_P2;Temp;Humidity;BMP_temperature;BMP_pressure;BME280_temperature;BME280_humidity;BME280_pressure;Samples;Min_cycle;Max_cycle;Signal;HPM_P1;HPM_P2
2022/06/17 00:00:53;;;;;;;;;16.00;13.00;;;;;23.43;39.54;101299.75;5080914;27;45573;-75
2022/06/17 00:03:19;;;;;;;;;12.50;12.50;;;;;23.42;39.80;101300.72;5081387;27;46098;-80
2022/06/17 00:05:45;;;;;;;;;17.75;13.75;;;;;23.39;39.88;101292.94;5079553;27;45286;-75
2022/06/17 00:08:18;;;;;;;;;15.25;14.00;;;;;23.37;40.06;101292.22;5079156;27;45405;-77
2022/06/17 00:10:44;;;;;;;;;14.00;12.25;;;;;23.27;39.91;101273.31;5077877;28;45528;-75
2022/06/17 00:13:13;;;;;;;;;13.50;12.00;;;;;23.36;40.05;101291.38;5078561;27;46460;-74
2022/06/17 00:15:39;;;;;;;;;10.75;9.75;;;;;23.37;39.74;101287.72;5077737;27;45350;-77
2022/06/17 00:18:04;;;;;;;;;10.75;10.75;;;;;23.36;39.50;101290.50;5077704;28;45359;-77
2022/06/17 00:20:33;;;;;;;;;13.50;13.50;;;;;23.37;39.26;101287.72;5078088;27;45510;-76
2022/06/17 00:22:58;;;;;;;;;11.75;11.75;;;;;23.17;39.73;101255.28;5077004;28;47021;-77
2022/06/17 00:25:26;;;;;;;;;11.75;10.75;;;;;23.38;39.50;101286.72;5077961;27;45243;-77
2022/06/17 00:27:53;;;;;;;;;11.25;9.75;;;;;23.32;39.75;101274.66;5078545;28;45402;-76
2022/06/17 00:30:22;;;;;;;;;9.50;9.50;;;;;23.37;39.53;101279.66;5077948;27;45440;-75
2022/06/17 00:32:55;;;;;;;;;12.25;12.25;;;;;23.37;39.73;101284.16;5077449;27;46155;-75
2022/06/17 00:35:22;;;;;;;;;13.75;12.25;;;;;23.31;39.48;101272.97;5076818;28;45314;-78
2022/06/17 00:37:48;;;;;;;;;15.50;13.50;;;;;23.36;39.21;101288.69;5060152;28;45248;-76
2022/06/17 00:40:21;;;;;;;;;10.50;10.50;;;;;23.20;39.59;101271.13;5079521;28;45538;-77
2022/06/17 00:42:47;;;;;;;;;10.00;10.00;;;;;23.35;39.42;101295.03;5078960;27;46435;-78
2022/06/17 00:45:21;;;;;;;;;12.25;10.00;;;;;23.29;39.92;101291.03;5082373;28;45237;-83
2022/06/17 00:48:00;;;;;;;;;9.00;9.00;;;;;23.30;39.91;101287.34;5084473;28;45295;-82
2022/06/17 00:50:42;;;;;;;;;13.25;11.00;;;;;23.29;40.08;101285.66;5090992;28;44832;-83
2022/06/17 00:53:25;;;;;;;;;13.25;10.25;;;;;23.29;39.56;101282.09;5088482;28;46874;-85
2022/06/17 00:56:00;;;;;;;;;11.50;11.50;;;;;23.27;39.43;101281.38;5093704;28;45362;-76
2022/06/17 00:58:30;;;;;;;;;11.00;11.00;;;;;23.25;40.21;101291.38;5097044;28;44747;-82
2022/06/17 01:00:59;;;;;;;;;11.25;11.00;;;;;23.19;39.91;101282.84;5087961;28;45421;-78
2022/06/17 01:03:32;;;;;;;;;8.75;8.75;;;;;23.22;40.17;101288.94;5078312;27;45711;-81
2022/06/17 01:06:15;;;;;;;;;13.25;10.50;;;;;23.13;40.06;101277.13;5078253;27;45515;-74
2022/06/17 01:11:39;;;;;;;;;14.50;12.75;;;;;23.15;40.44;101293.97;5082019;28;45381;-82
2022/06/17 01:14:07;;;;;;;;;14.25;12.50;;;;;23.08;40.44;101288.25;5077974;28;46838;-78
2022/06/17 01:16:37;;;;;;;;;11.50;11.25;;;;;23.12;40.52;101294.22;5081144;27;45380;-80
2022/06/17 01:19:29;;;;;;;;;10.00;10.00;;;;;23.08;40.38;101288.25;5083915;27;45333;-78
2022/06/17 01:22:13;;;;;;;;;10.50;10.50;;;;;23.07;40.53;101294.59;5080993;28;45211;-80
2022/06/17 01:24:39;;;;;;;;;9.50;9.50;;;;;23.00;40.98;101288.88;5077625;27;45644;-75
2022/06/17 01:27:05;;;;;;;;;13.25;11.50;;;;;22.94;40.33;101281.34;5077822;27;45271;-82
2022/06/17 01:29:32;;;;;;;;;11.25;9.75;;;;;22.97;40.91;101302.56;5078273;27;45365;-79
2022/06/17 01:31:58;;;;;;;;;9.75;9.75;;;;;22.97;40.44;101301.69;5078618;27;45322;-79
2022/06/17 01:34:24;;;;;;;;;10.00;10.00;;;;;22.94;40.78;101301.94;5078195;27;46403;-80
2022/06/17 01:36:50;;;;;;;;;9.25;9.25;;;;;22.91;41.25;101309.25;5077716;27;45705;-79
2022/06/17 01:39:17;;;;;;;;;9.25;9.25;;;;;22.87;40.83;101306.97;5078726;27;45272;-81
2022/06/17 01:41:45;;;;;;;;;11.00;8.25;;;;;22.88;40.86;101308.66;5079585;27;45342;-80
2022/06/17 01:44:25;;;;;;;;;9.75;9.75;;;;;22.87;41.56;101310.47;5079583;27;45665;-81
2022/06/17 01:46:55;;;;;;;;;9.50;9.50;;;;;22.85;41.06;101308.91;5078326;27;45287;-81
2022/06/17 01:49:32;;;;;;;;;12.00;10.75;;;;;22.82;41.02;101303.81;5080477;27;45537;-78
2022/06/17 01:52:04;;;;;;;;;9.75;9.75;;;;;22.77;41.26;101312.22;5078234;28;45298;-79
2022/06/17 01:54:36;;;;;;;;;9.75;9.75;;;;;22.70;41.64;101308.31;5077754;28;46828;-82
2022/06/17 01:57:05;;;;;;;;;11.50;10.75;;;;;22.69;41.45;101311.97;5083726;27;45204;-82
2022/06/17 01:59:40;;;;;;;;;9.75;9.75;;;;;22.70;41.50;101332.44;5081733;27;45339;-80
2022/06/17 02:02:10;;;;;;;;;9.00;9.00;;;;;22.68;42.13;101337.09;5083759;27;45346;-81
2022/06/17 02:04:39;;;;;;;;;10.00;10.00;;;;;22.66;41.66;101331.81;5083803;27;45534;-80
2022/06/17 02:07:21;;;;;;;;;9.25;8.75;;;;;22.61;41.89;101329.53;5084757;27;44750;-81
2022/06/17 02:09:48;;;;;;;;;9.50;9.50;;;;;22.61;41.84;101324.16;5081636;27;45212;-79
2022/06/17 02:12:16;;;;;;;;;8.75;8.75;;;;;22.56;41.78;101330.84;5077932;28;45561;-82
2022/06/17 02:14:43;;;;;;;;;10.00;10.00;;;;;22.55;41.92;101348.78;5076017;28;45504;-82
2022/06/17 02:17:09;;;;;;;;;11.25;11.25;;;;;22.54;42.43;101348.91;5076089;27;45382;-80
2022/06/17 02:19:37;;;;;;;;;8.50;8.50;;;;;22.43;42.21;101325.59;5077096;28;45322;-82
2022/06/17 02:22:25;;;;;;;;;8.00;8.00;;;;;22.50;42.28;101350.09;5077372;28;45589;-82
2022/06/17 02:24:53;;;;;;;;;9.50;9.50;;;;;22.47;42.48;101353.91;5077321;27;45660;-83
2022/06/17 02:27:20;;;;;;;;;13.50;12.00;;;;;22.44;42.82;101354.13;5077414;27;45398;-80
2022/06/17 02:29:48;;;;;;;;;11.25;11.25;;;;;22.22;42.58;101323.59;5077527;27;45374;-82
2022/06/17 02:32:15;;;;;;;;;11.00;11.00;;;;;22.39;42.62;101359.81;5077296;27;45578;-80
2022/06/17 02:34:54;;;;;;;;;8.25;8.25;;;;;22.36;42.45;101357.38;5076590;28;45575;-77
2022/06/17 02:37:21;;;;;;;;;12.50;12.50;;;;;22.35;42.99;101361.03;5082283;28;45526;-81
2022/06/17 02:39:49;;;;;;;;;14.25;14.25;;;;;22.32;42.86;101356.78;5077273;27;45299;-82
2022/06/17 02:42:37;;;;;;;;;8.50;8.50;;;;;22.24;42.81;101345.78;5077406;27;45650;-83
2022/06/17 02:45:14;;;;;;;;;8.75;8.75;;;;;22.29;42.92;101361.50;5077116;27;47805;-82
2022/06/17 02:47:40;;;;;;;;;9.00;9.00;;;;;22.24;42.75;101359.19;5076586;28;45309;-81
2022/06/17 02:50:06;;;;;;;;;12.00;9.00;;;;;22.25;42.87;101362.72;5080755;28;45255;-82
2022/06/17 02:52:38;;;;;;;;;9.50;9.50;;;;;22.16;42.89;101354.44;5079922;27;45265;-80
2022/06/17 02:55:09;;;;;;;;;11.75;11.75;;;;;22.18;42.75;101360.53;5080255;27;45476;-81
2022/06/17 02:57:35;;;;;;;;;9.00;9.00;;;;;22.09;42.66;101341.63;5081201;27;45473;-78
2022/06/17 03:00:13;;;;;;;;;11.00;10.50;;;;;22.19;43.18;101369.41;5081183;28;45400;-82
2022/06/17 03:02:44;;;;;;;;;12.00;10.00;;;;;22.01;43.31;101337.69;5083652;27;45295;-80
2022/06/17 03:05:22;;;;;;;;;14.00;13.25;;;;;22.17;43.09;101357.94;5084440;27;45263;-85
2022/06/17 03:07:49;;;;;;;;;11.50;10.00;;;;;22.14;42.93;101359.06;5084917;28;45397;-82
2022/06/17 03:10:17;;;;;;;;;10.00;10.00;;;;;22.12;43.12;101368.16;5084254;27;45336;-83
2022/06/17 03:12:47;;;;;;;;;10.00;10.00;;;;;22.10;43.21;101362.94;5082931;27;45177;-80
2022/06/17 03:15:17;;;;;;;;;13.00;11.00;;;;;22.08;43.08;101358.66;5083333;27;45613;-77
2022/06/17 03:17:44;;;;;;;;;10.25;10.25;;;;;22.06;42.93;101349.88;5087147;27;45184;-77
2022/06/17 03:20:21;;;;;;;;;10.25;10.25;;;;;22.03;43.16;101351.00;5098230;27;45141;-82
2022/06/17 03:22:50;;;;;;;;;10.25;8.00;;;;;21.99;42.85;101334.28;5080058;28;45365;-78
2022/06/17 03:25:34;;;;;;;;;12.00;10.50;;;;;21.94;43.04;101331.09;5077494;28;47276;-79
2022/06/17 03:28:08;;;;;;;;;11.00;11.00;;;;;21.98;43.22;101337.09;5078886;27;45349;-79
2022/06/17 03:30:38;;;;;;;;;10.50;10.50;;;;;21.96;43.09;101339.88;5078698;28;45326;-79
2022/06/17 03:33:25;;;;;;;;;10.25;9.25;;;;;21.95;43.31;101334.66;5077230;28;45240;-80
2022/06/17 03:35:57;;;;;;;;;10.75;10.75;;;;;21.94;43.43;101328.44;5078647;27;45591;-79
2022/06/17 03:38:34;;;;;;;;;12.00;11.00;;;;;21.93;43.31;101329.41;5078299;28;45283;-77
2022/06/17 03:41:12;;;;;;;;;10.50;10.00;;;;;21.81;43.60;101314.28;5078510;28;45529;-77
2022/06/17 03:43:48;;;;;;;;;12.00;10.50;;;;;21.87;43.33;101317.34;5078647;28;45358;-79
2022/06/17 03:46:14;;;;;;;;;17.00;10.50;;;;;21.80;43.42;101300.06;5078234;27;46008;-77
2022/06/17 03:49:15;;;;;;;;;11.75;11.75;;;;;21.83;43.39;101294.47;5077870;27;45417;-77
2022/06/17 03:51:41;;;;;;;;;11.00;11.00;;;;;21.81;43.74;101298.22;5070808;28;45407;-78
2022/06/17 03:54:13;;;;;;;;;12.25;11.50;;;;;21.71;43.69;101314.97;5079430;27;45378;-78
2022/06/17 03:56:41;;;;;;;;;11.00;10.25;;;;;21.70;43.58;101345.41;5078365;27;45334;-77
2022/06/17 03:59:14;;;;;;;;;13.25;11.75;;;;;21.68;43.83;101352.69;5076503;28;45843;-78
2022/06/17 04:01:46;;;;;;;;;8.50;8.50;;;;;21.67;43.86;101348.31;5078073;28;45267;-80
2022/06/17 04:04:16;;;;;;;;;11.25;10.00;;;;;21.53;43.99;101327.88;5078477;28;45509;-79
2022/06/17 04:06:45;;;;;;;;;12.25;11.75;;;;;21.73;43.87;101363.91;5078158;27;47481;-78
2022/06/17 04:09:18;;;;;;;;;11.00;11.00;;;;;21.70;43.80;101360.59;5076197;28;45925;-79
2022/06/17 04:11:47;;;;;;;;;11.25;10.75;;;;;21.74;44.19;101373.66;5077713;27;45337;-79
2022/06/17 04:14:28;;;;;;;;;11.00;11.00;;;;;21.70;43.79;101352.56;5077754;27;45228;-78
2022/06/17 04:17:11;;;;;;;;;12.50;12.50;;;;;21.74;43.84;101352.22;5076822;28;46322;-79
2022/06/17 04:19:38;;;;;;;;;11.75;11.75;;;;;21.75;43.69;101358.47;5077834;27;45435;-79
2022/06/17 04:22:18;;;;;;;;;10.00;10.00;;;;;21.73;43.85;101353.19;5079187;27;45413;-78
2022/06/17 04:24:52;;;;;;;;;9.25;9.25;;;;;21.73;44.01;101350.53;5078644;27;45392;-80
2022/06/17 04:27:19;;;;;;;;;12.50;11.50;;;;;21.69;43.58;101332.97;5077725;28;46578;-78
2022/06/17 04:29:50;;;;;;;;;9.25;9.25;;;;;21.68;43.68;101330.41;5077379;28;45257;-79
2022/06/17 04:32:27;;;;;;;;;9.75;9.00;;;;;21.83;43.67;101357.84;5077673;28;45295;-79
2022/06/17 04:34:52;;;;;;;;;12.25;10.75;;;;;21.83;43.65;101349.81;5077728;27;45400;-82
2022/06/17 04:37:21;;;;;;;;;10.75;10.75;;;;;21.86;43.42;101346.91;5077505;27;45274;-78
2022/06/17 04:39:57;;;;;;;;;14.00;10.00;;;;;21.94;43.58;101339.16;5077870;28;45349;-79
2022/06/17 04:42:35;;;;;;;;;12.25;11.00;;;;;21.96;43.48;101345.25;5078302;27;45318;-81
2022/06/17 04:45:02;;;;;;;;;11.75;11.00;;;;;21.97;43.36;101344.25;5078357;28;45711;-81
2022/06/17 04:47:32;;;;;;;;;11.00;11.00;;;;;22.11;43.29;101358.41;5078101;28;45314;-81
2022/06/17 04:50:10;;;;;;;;;12.00;11.00;;;;;22.18;43.06;101362.34;5078144;28;45539;-78
2022/06/17 04:52:44;;;;;;;;;13.25;11.75;;;;;22.24;43.36;101366.38;5078276;28;45263;-79
2022/06/17 04:55:25;;;;;;;;;11.50;11.50;;;;;22.27;43.45;101364.34;5078687;27;45492;-79
2022/06/17 04:57:50;;;;;;;;;10.25;8.50;;;;;22.21;43.35;101343.34;5077755;27;46355;-78
2022/06/17 05:00:21;;;;;;;;;11.75;11.50;;;;;22.43;43.13;101372.00;5077242;28;45396;-78
2022/06/17 05:02:47;;;;;;;;;10.75;10.75;;;;;22.57;43.12;101367.41;5076442;28;45314;-78
2022/06/17 05:05:20;;;;;;;;;9.25;9.25;;;;;22.69;43.10;101354.88;5077490;27;45579;-78
2022/06/17 05:07:49;;;;;;;;;10.75;10.75;;;;;22.99;42.28;101370.34;5077265;27;45571;-79
2022/06/17 05:10:24;;;;;;;;;10.50;10.50;;;;;23.16;41.55;101349.34;5076374;27;45392;-78
2022/06/17 05:13:02;;;;;;;;;11.50;11.50;;;;;23.52;41.37;101359.88;5077423;27;45313;-78
2022/06/17 05:15:28;;;;;;;;;11.75;11.75;;;;;23.87;40.98;101364.13;5075704;28;45435;-78
2022/06/17 05:17:55;;;;;;;;;11.25;10.00;;;;;24.13;39.90;101363.75;5074529;28;47093;-80
2022/06/17 05:20:22;;;;;;;;;9.25;8.00;;;;;24.40;39.89;101344.41;5076934;28;45258;-79
2022/06/17 05:22:53;;;;;;;;;10.75;9.00;;;;;24.72;39.79;101353.31;5075245;28;45391;-79
2022/06/17 05:25:27;;;;;;;;;9.00;9.00;;;;;24.94;38.93;101355.84;5075344;28;45489;-79
2022/06/17 05:27:53;;;;;;;;;12.25;11.50;;;;;24.93;39.09;101332.59;5076700;28;46298;-81
2022/06/17 05:30:18;;;;;;;;;10.50;10.25;;;;;25.06;39.08;101340.44;5076281;27;45360;-78
2022/06/17 05:32:47;;;;;;;;;11.00;11.00;;;;;25.16;39.02;101332.34;5076172;27;45401;-78
2022/06/17 05:35:13;;;;;;;;;13.00;12.75;;;;;25.13;39.03;101323.72;5076880;27;45270;-80
2022/06/17 05:37:39;;;;;;;;;16.25;15.00;;;;;25.20;39.00;101327.56;5078848;27;45210;-81
2022/06/17 05:40:06;;;;;;;;;9.25;9.25;;;;;25.33;38.57;101332.66;5079414;28;45313;-78
2022/06/17 05:42:31;;;;;;;;;14.75;13.00;;;;;25.41;38.44;101327.41;5081231;28;45338;-78
2022/06/17 05:44:57;;;;;;;;;17.50;12.00;;;;;25.50;38.17;101328.47;5080170;27;45500;-73
2022/06/17 05:47:22;;;;;;;;;14.00;12.25;;;;;25.61;37.90;101333.69;5078224;28;45304;-77
2022/06/17 05:49:48;;;;;;;;;12.00;12.00;;;;;25.63;37.84;101331.72;5076527;28;45872;-81
2022/06/17 05:52:14;;;;;;;;;13.25;12.00;;;;;25.62;38.32;101324.63;5077140;28;45319;-78
2022/06/17 05:54:39;;;;;;;;;15.00;15.00;;;;;25.63;37.91;101342.50;5075905;28;45334;-75
2022/06/17 05:57:05;;;;;;;;;12.75;9.00;;;;;25.56;37.40;101330.59;5076781;28;47482;-75
2022/06/17 05:59:30;;;;;;;;;8.75;8.75;;;;;25.54;38.11;101340.66;5077983;28;45489;-80
2022/06/17 06:01:56;;;;;;;;;14.25;13.25;;;;;25.49;37.43;101342.91;5074059;28;45430;-73
2022/06/17 06:04:22;;;;;;;;;12.25;12.25;;;;;25.44;37.61;101337.91;5078494;28;45211;-77
2022/06/17 06:06:47;;;;;;;;;11.75;10.25;;;;;25.39;38.07;101350.94;5081804;28;45292;-75
2022/06/17 06:09:13;;;;;;;;;11.00;11.00;;;;;25.29;37.79;101350.09;5082218;27;45480;-77
2022/06/17 06:11:39;;;;;;;;;9.00;9.00;;;;;25.16;38.21;101340.44;5083097;27;45373;-80
2022/06/17 06:14:04;;;;;;;;;10.50;9.00;;;;;25.09;38.13;101352.75;5077442;27;45216;-75
2022/06/17 06:16:30;;;;;;;;;12.50;11.25;;;;;25.00;38.20;101346.38;5076107;28;46498;-75
2022/06/17 06:18:56;;;;;;;;;14.25;12.75;;;;;24.96;38.81;101344.94;5074725;28;45284;-75
2022/06/17 06:21:21;;;;;;;;;11.00;11.00;;;;;24.91;38.80;101334.59;5075022;27;45426;-73
2022/06/17 06:23:47;;;;;;;;;11.50;11.50;;;;;24.84;38.61;101335.25;5073267;28;45663;-73
2022/06/17 06:26:18;;;;;;;;;10.25;9.75;;;;;24.78;38.80;101332.13;5074315;27;45416;-74
2022/06/17 06:28:43;;;;;;;;;13.25;13.25;;;;;24.73;38.50;101328.13;5093356;27;45808;-74
2022/06/17 06:31:36;;;;;;;;;14.00;11.75;;;;;24.73;38.80;101330.81;5091980;27;45259;-83
2022/06/17 06:34:02;;;;;;;;;10.75;10.75;;;;;24.67;38.82;101308.00;5076448;28;45228;-85
2022/06/17 06:36:28;;;;;;;;;13.50;11.00;;;;;24.64;38.73;101309.13;5078288;28;45408;-84
2022/06/17 06:38:53;;;;;;;;;13.25;13.25;;;;;24.67;38.87;101293.72;5079255;28;45212;-77
2022/06/17 06:41:20;;;;;;;;;13.25;12.50;;;;;24.69;38.85;101300.63;5073683;28;45480;-78
2022/06/17 06:43:46;;;;;;;;;12.50;12.00;;;;;24.67;40.04;101305.31;5078001;27;45469;-77
2022/06/17 06:46:15;;;;;;;;;11.25;11.25;;;;;24.68;39.13;101308.84;5076295;27;46391;-81
2022/06/17 06:48:41;;;;;;;;;16.00;14.25;;;;;24.69;39.98;101315.94;5074835;27;45413;-75
2022/06/17 06:51:06;;;;;;;;;43.50;37.50;;;;;24.68;39.95;101315.06;5075924;28;45310;-77
2022/06/17 06:53:32;;;;;;;;;12.75;11.25;;;;;24.74;39.93;101327.16;5077028;27;45202;-78
2022/06/17 06:55:57;;;;;;;;;12.50;11.00;;;;;24.77;39.69;101318.81;5074922;28;48023;-81
2022/06/17 06:58:25;;;;;;;;;13.00;13.00;;;;;24.78;39.80;101310.59;5074776;28;45261;-79
2022/06/17 07:00:54;;;;;;;;;14.50;14.50;;;;;24.83;39.37;101318.28;5074776;28;45316;-86
2022/06/17 07:03:20;;;;;;;;;15.25;14.50;;;;;24.85;40.09;101313.59;5075593;27;45535;-74
2022/06/17 07:05:50;;;;;;;;;14.00;12.25;;;;;24.97;39.65;101313.50;5073944;28;46228;-75
2022/06/17 07:08:18;;;;;;;;;20.00;18.25;;;;;24.97;39.59;101305.41;5073488;27;45529;-74
2022/06/17 07:10:45;;;;;;;;;14.25;14.25;;;;;25.08;39.35;101313.38;5073245;27;45472;-77
2022/06/17 07:13:12;;;;;;;;;16.00;14.25;;;;;25.09;39.57;101310.56;5074384;27;45490;-76
2022/06/17 07:15:39;;;;;;;;;4.50;3.50;;;;;25.22;38.91;101322.88;5073008;27;45411;-76
2022/06/17 07:18:18;;;;;;;;;11.75;11.75;;;;;25.24;39.17;101327.13;5072065;27;45401;-76
2022/06/17 07:20:47;;;;;;;;;11.00;10.75;;;;;25.33;38.56;101340.75;5073707;27;45360;-77
2022/06/17 07:23:16;;;;;;;;;11.00;11.00;;;;;25.36;39.01;101338.63;5073497;27;45679;-76
2022/06/17 07:25:43;;;;;;;;;12.00;12.00;;;;;25.39;38.39;101340.19;5074058;28;45820;-76
2022/06/17 07:28:12;;;;;;;;;12.00;12.00;;;;;25.44;39.08;101348.69;5074672;27;45449;-76
2022/06/17 07:30:37;;;;;;;;;11.25;11.25;;;;;25.51;38.66;101343.63;5074541;27;45321;-77
2022/06/17 07:33:03;;;;;;;;;13.25;11.75;;;;;25.58;38.61;101339.38;5075083;27;45531;-76
2022/06/17 07:35:28;;;;;;;;;15.25;11.50;;;;;25.67;38.12;101329.59;5074455;27;45409;-78
2022/06/17 07:40:39;;;;;;;;;13.75;13.00;;;;;25.83;38.33;101341.63;5074918;28;45829;-78
2022/06/17 07:43:04;;;;;;;;;11.25;11.25;;;;;25.78;38.07;101324.06;5077556;28;45540;-76
2022/06/17 07:45:31;;;;;;;;;13.00;13.00;;;;;26.00;38.25;101359.75;5077945;27;45999;-77
2022/06/17 07:47:58;;;;;;;;;12.25;10.00;;;;;26.10;38.04;101365.16;5078116;27;45444;-76
2022/06/17 07:50:30;;;;;;;;;11.50;11.25;;;;;26.15;37.82;101368.28;5078703;27;45416;-76
2022/06/17 07:52:56;;;;;;;;;11.50;11.50;;;;;26.23;37.59;101376.50;5078191;27;45452;-75
2022/06/17 07:55:22;;;;;;;;;12.75;12.25;;;;;26.33;37.35;101375.63;5077540;27;45397;-76
2022/06/17 07:57:49;;;;;;;;;14.50;12.00;;;;;26.44;37.23;101375.44;5078502;27;45539;-77
2022/06/17 08:00:31;;;;;;;;;13.00;12.00;;;;;26.51;37.54;101370.34;5079049;27;45486;-76
2022/06/17 08:02:56;;;;;;;;;14.00;14.00;;;;;26.63;36.80;101373.69;5080410;28;45326;-77
2022/06/17 08:05:22;;;;;;;;;13.25;12.50;;;;;26.64;36.69;101372.69;5079349;27;45389;-77
2022/06/17 08:07:49;;;;;;;;;8.25;7.00;;;;;26.80;36.40;101401.75;5079110;27;45337;-77
2022/06/17 08:10:17;;;;;;;;;13.25;11.75;;;;;26.87;36.29;101394.78;5080600;27;45343;-77
2022/06/17 08:12:42;;;;;;;;;15.75;14.00;;;;;26.97;35.78;101392.88;5081156;27;45623;-76
2022/06/17 08:15:08;;;;;;;;;18.50;18.50;;;;;27.05;36.03;101383.16;5081453;27;45608;-78
2022/06/17 08:17:33;;;;;;;;;13.75;13.75;;;;;27.12;35.51;101382.44;5080741;27;45405;-76
2022/06/17 08:19:59;;;;;;;;;13.50;13.50;;;;;27.17;35.13;101373.84;5079462;27;45433;-76
2022/06/17 08:22:25;;;;;;;;;12.50;11.75;;;;;27.38;34.95;101397.03;5077942;27;45534;-76
2022/06/17 08:24:52;;;;;;;;;15.50;14.00;;;;;27.46;34.62;101396.28;5078371;27;45247;-76
2022/06/17 08:27:18;;;;;;;;;16.00;12.75;;;;;27.56;34.77;101397.09;5077713;27;45407;-76
2022/06/17 08:29:50;;;;;;;;;11.00;11.00;;;;;27.61;34.52;101391.22;5078456;27;45354;-75
2022/06/17 08:35:01;;;;;;;;;12.75;12.75;;;;;27.77;33.96;101379.69;5077108;28;45343;-76
2022/06/17 08:37:26;;;;;;;;;17.75;14.50;;;;;27.80;33.73;101374.84;5077095;27;45480;-75
2022/06/17 08:39:52;;;;;;;;;16.00;14.25;;;;;27.83;33.85;101362.84;5077153;27;45395;-75
2022/06/17 08:43:00;;;;;;;;;12.25;12.25;;;;;28.06;33.30;101375.88;5077062;27;45575;-76
2022/06/17 08:45:26;;;;;;;;;14.25;14.25;;;;;28.16;33.03;101373.97;5076820;27;46132;-74
2022/06/17 08:47:57;;;;;;;;;14.25;14.25;;;;;28.27;33.69;101373.69;5075015;28;45360;-76
2022/06/17 08:51:00;;;;;;;;;12.75;12.75;;;;;28.41;33.18;101371.41;5076698;28;45294;-75
2022/06/17 08:53:40;;;;;;;;;13.00;13.00;;;;;28.56;33.06;101364.38;5075519;28;45445;-76
2022/06/17 08:56:21;;;;;;;;;11.75;11.75;;;;;28.70;32.66;101365.66;5076394;28;45586;-75
2022/06/17 08:59:03;;;;;;;;;9.50;9.50;;;;;28.81;31.49;101361.81;5075243;27;45342;-75
2022/06/17 09:01:51;;;;;;;;;13.50;12.00;;;;;28.88;31.92;101364.72;5076642;28;45441;-76
2022/06/17 09:04:44;;;;;;;;;12.25;12.25;;;;;28.98;31.46;101357.31;5076610;27;45439;-76
2022/06/17 09:07:54;;;;;;;;;11.25;9.50;;;;;29.07;30.60;101360.03;5076369;28;45461;-75
2022/06/17 09:10:47;;;;;;;;;11.00;10.00;;;;;29.12;30.88;101361.22;5072909;27;45371;-78
2022/06/17 09:13:34;;;;;;;;;15.50;14.50;;;;;29.22;30.62;101361.09;5076276;28;45401;-77
2022/06/17 09:16:11;;;;;;;;;12.75;10.75;;;;;29.28;30.60;101357.72;5074779;28;45542;-75
2022/06/17 09:18:41;;;;;;;;;14.50;11.75;;;;;29.32;30.14;101351.97;5075993;27;45628;-75
2022/06/17 09:21:10;;;;;;;;;9.75;8.75;;;;;29.41;29.68;101353.69;5075917;27;45334;-75
2022/06/17 09:23:38;;;;;;;;;10.75;10.00;;;;;29.46;29.41;101354.03;5076164;27;45367;-76
2022/06/17 09:26:10;;;;;;;;;10.00;8.75;;;;;29.55;28.94;101353.03;5076090;28;45165;-75
2022/06/17 09:28:42;;;;;;;;;9.75;9.75;;;;;29.56;29.10;101348.47;5074286;28;47043;-75
2022/06/17 09:31:23;;;;;;;;;10.00;8.75;;;;;29.59;29.49;101354.38;5076082;27;45332;-76
2022/06/17 09:34:02;;;;;;;;;12.25;10.50;;;;;29.72;28.82;101355.75;5075478;27;45294;-75
2022/06/17 09:36:30;;;;;;;;;7.50;7.00;;;;;29.82;28.88;101352.88;5076061;27;45418;-76
2022/06/17 09:39:06;;;;;;;;;6.50;6.50;;;;;29.91;28.20;101340.16;5074444;28;46131;-77
2022/06/17 09:41:45;;;;;;;;;8.25;8.25;;;;;30.01;27.73;101357.13;5075817;27;45389;-74
2022/06/17 09:44:33;;;;;;;;;9.75;8.00;;;;;30.00;27.92;101344.59;5076344;28;45279;-75
2022/06/17 09:47:13;;;;;;;;;8.75;7.75;;;;;30.22;27.96;101361.16;5076239;27;45488;-74
2022/06/17 09:49:52;;;;;;;;;8.75;6.75;;;;;30.33;27.28;101354.53;5075485;28;45490;-74
2022/06/17 09:52:23;;;;;;;;;7.25;6.00;;;;;30.42;27.66;101350.75;5075690;27;45399;-75
2022/06/17 09:55:01;;;;;;;;;9.50;7.00;;;;;30.46;26.49;101346.69;5075625;27;45180;-74
2022/06/17 09:57:45;;;;;;;;;6.25;6.25;;;;;30.53;27.00;101344.09;5075855;27;45363;-75
2022/06/17 10:00:15;;;;;;;;;0.00;0.00;;;;;30.63;26.34;101343.94;5075336;27;46183;-75
2022/06/17 10:02:41;;;;;;;;;11.00;11.00;;;;;30.69;26.76;101343.22;5075479;27;45290;-74
2022/06/17 10:05:29;;;;;;;;;14.50;13.25;;;;;30.73;27.15;101345.38;5075103;28;45228;-75
2022/06/17 10:07:58;;;;;;;;;7.50;7.50;;;;;30.79;26.69;101348.44;5075245;27;45202;-76
2022/06/17 10:10:44;;;;;;;;;10.00;9.00;;;;;30.82;26.72;101348.94;5074811;27;45776;-75
2022/06/17 10:13:15;;;;;;;;;12.75;9.75;;;;;30.84;26.87;101344.16;5075463;27;45390;-75
2022/06/17 10:19:11;;;;;;;;;16.50;16.50;;;;;30.98;26.58;101341.72;5076022;28;45177;-74
2022/06/17 10:21:52;;;;;;;;;34.75;30.75;;;;;30.99;26.91;101344.25;5077028;27;45706;-74
2022/06/17 10:24:35;;;;;;;;;8.50;8.50;;;;;31.13;26.36;101349.94;5078740;27;45357;-75
2022/06/17 10:27:27;;;;;;;;;12.25;10.50;;;;;31.19;26.34;101341.13;5074670;28;45322;-76
2022/06/17 10:30:08;;;;;;;;;10.00;10.00;;;;;31.30;26.05;101332.53;5073838;28;45340;-75
2022/06/17 10:32:38;;;;;;;;;9.25;9.25;;;;;31.30;26.17;101327.09;5074490;27;46139;-75
2022/06/17 10:35:13;;;;;;;;;12.00;12.00;;;;;31.30;25.71;101326.28;5073139;27;45291;-77
2022/06/17 10:37:39;;;;;;;;;13.75;12.00;;;;;31.33;26.21;101345.75;5075305;27;45369;-77
2022/06/17 10:40:09;;;;;;;;;7.00;7.00;;;;;31.37;25.67;101324.53;5075232;27;45593;-75
2022/06/17 10:42:35;;;;;;;;;10.50;8.50;;;;;31.47;25.74;101330.56;5073471;28;46489;-76
2022/06/17 10:45:01;;;;;;;;;13.00;10.50;;;;;31.48;26.16;101321.38;5074689;27;45410;-75
2022/06/17 10:47:42;;;;;;;;;9.75;9.75;;;;;31.68;25.97;101339.03;5074872;28;45242;-75
2022/06/17 10:50:23;;;;;;;;;11.50;10.00;;;;;31.73;25.09;101337.47;5075183;27;45404;-75
2022/06/17 10:52:59;;;;;;;;;10.00;9.25;;;;;31.81;25.41;101331.16;5074754;27;45732;-76
2022/06/17 10:55:34;;;;;;;;;8.75;8.25;;;;;31.80;24.90;101340.31;5074997;27;45326;-74
2022/06/17 10:58:11;;;;;;;;;8.50;7.25;;;;;31.79;24.87;101338.63;5075068;28;45247;-76
2022/06/17 11:00:54;;;;;;;;;8.00;6.75;;;;;31.82;24.73;101338.28;5075007;28;45440;-76
2022/06/17 11:03:29;;;;;;;;;7.25;6.25;;;;;31.84;25.01;101333.50;5072956;28;46955;-75
2022/06/17 11:05:57;;;;;;;;;6.00;6.00;;;;;31.91;24.09;101333.59;5074805;27;45290;-76
2022/06/17 11:08:29;;;;;;;;;5.50;4.25;;;;;31.95;24.66;101332.19;5074836;27;45505;-75
2022/06/17 11:12:02;;;;;;;;;5.75;5.00;;;;;31.96;24.27;101331.16;5074748;27;45445;-74
2022/06/17 11:13:46;;;;;;;;;7.00;7.00;;;;;32.04;23.83;101333.78;5074581;28;45381;-74
2022/06/17 11:16:18;;;;;;;;;9.50;8.50;;;;;32.11;24.46;101342.06;5076956;28;45321;-76
2022/06/17 11:18:49;;;;;;;;;9.50;9.00;;;;;32.11;24.56;101333.91;5078762;27;45365;-78
2022/06/17 11:21:30;;;;;;;;;9.75;8.00;;;;;32.16;24.02;101342.34;5079025;27;45161;-78
2022/06/17 11:23:58;;;;;;;;;9.50;9.50;;;;;32.23;24.22;101342.44;5077863;27;45452;-77
2022/06/17 11:26:30;;;;;;;;;10.25;10.25;;;;;32.30;23.89;101331.66;5077978;27;45276;-75
2022/06/17 11:28:59;;;;;;;;;5.75;4.50;;;;;32.33;23.99;101336.75;5076511;28;45430;-77
2022/06/17 11:31:24;;;;;;;;;10.75;9.75;;;;;32.36;23.79;101330.94;5078322;27;45465;-76
2022/06/17 11:33:53;;;;;;;;;6.25;6.25;;;;;32.39;24.24;101333.28;5078134;28;45249;-76
2022/06/17 11:36:24;;;;;;;;;12.00;12.00;;;;;32.42;24.22;101332.88;5078421;28;45383;-75
2022/06/17 11:38:51;;;;;;;;;7.25;7.25;;;;;32.49;24.19;101333.81;5078313;27;45283;-75
2022/06/17 11:41:27;;;;;;;;;8.50;8.00;;;;;32.60;24.14;101329.78;5078576;27;45383;-75
2022/06/17 11:43:55;;;;;;;;;6.50;6.50;;;;;32.64;24.60;101322.06;5077706;27;46156;-76
2022/06/17 11:46:24;;;;;;;;;8.25;8.25;;;;;32.68;24.18;101320.66;5077819;28;45393;-76